ID Time Temp Humidity Light PM2.5 PM10 Voltage Extra Firmware Position Fcnt TTN version Gateways Distance RSSI LSNR Radiosettings
2026-05-07 16:28:12 14.875°C 59.875% 3.34V v254 52.0983 / 5.12247 9049 ttn.v3 2.111km -104 -8.75 867.1MHz, SF10BW125, 4/5CR
0.545km -119 -15 867.1MHz, SF10BW125, 4/5CR
2026-05-07 15:40:17 15.4375°C 61.9375% 3.34V v254 52.0983 / 5.12247 9046 ttn.v3 - -126 -17 868.1MHz, SF10BW125, 4/5CR
2026-05-07 15:24:19 15.375°C 62.375% 3.34V v254 52.0983 / 5.12247 9045 ttn.v3 2.111km -109 -14.25 867.7MHz, SF10BW125, 4/5CR
2026-05-07 15:08:20 15.375°C 63.4375% 3.34V v254 52.0983 / 5.12247 9044 ttn.v3 0.545km -119 -16.5 868.5MHz, SF10BW125, 4/5CR
2026-05-07 14:52:22 15.6875°C 61.8125% 3.34V v254 52.0983 / 5.12247 9043 ttn.v3 0.545km -119 -15.2 867.5MHz, SF10BW125, 4/5CR
2026-05-07 14:20:25 16°C 59.6875% 3.34V v254 52.0983 / 5.12247 9041 ttn.v3 0.545km -119 -13.5 867.3MHz, SF10BW125, 4/5CR
2026-05-07 13:16:29 15.375°C 64.6875% 3.34V v254 52.0983 / 5.12247 9037 ttn.v3 0.545km -121 -14.8 867.9MHz, SF10BW125, 4/5CR
2026-05-07 12:28:35 15.125°C 65.375% 3.34V v254 52.0983 / 5.12247 9034 ttn.v3 2.111km -95 -9.25 868.1MHz, SF10BW125, 4/5CR
2026-05-07 11:40:39 16.625°C 62.75% 3.34V v254 52.0983 / 5.12247 9031 ttn.v3 0.545km -120 -16.8 867.3MHz, SF10BW125, 4/5CR
2026-05-07 11:08:42 16.125°C 62.4375% 3.34V v254 52.0983 / 5.12247 9029 ttn.v3 2.111km -108 -11 867.1MHz, SF10BW125, 4/5CR
2026-05-07 10:52:43 15.9375°C 64.25% 3.34V v254 52.0983 / 5.12247 9028 ttn.v3 2.111km -108 -12.75 868.1MHz, SF10BW125, 4/5CR
2026-05-07 09:32:55 11.9375°C 76.25% 3.34V v254 52.0983 / 5.12247 9023 ttn.v3 0.545km -119 -14.8 867.5MHz, SF10BW125, 4/5CR
2026-05-07 09:17:40 11.5625°C 74.9375% 3.34V v254 52.0983 / 5.12247 9022 ttn.v3 2.111km -101 -17 868.1MHz, SF12BW125, 4/5CR
2026-05-07 08:29:13 9.4375°C 87.75% 3.34V v254 52.0983 / 5.12253 9019 ttn.v3 0.541km -121 -14.5 867.1MHz, SF10BW125, 4/5CR
2026-05-07 07:25:31 8.3125°C 94.0625% 3.33V v254 52.0983 / 5.12253 9015 ttn.v3 - -123 -11 867.7MHz, SF10BW125, 4/5CR
2026-05-07 06:21:52 7.375°C 97.625% 3.33V v254 52.0983 / 5.12253 9011 ttn.v3 2.107km -104 -8.75 867.3MHz, SF10BW125, 4/5CR
2026-05-07 05:50:02 6.9375°C 98.125% 3.33V v254 52.0983 / 5.12253 9009 ttn.v3 2.107km -107 -8.25 867.1MHz, SF10BW125, 4/5CR
2026-05-07 05:18:12 6.875°C 97% 3.33V v254 52.0983 / 5.12253 9007 ttn.v3 2.107km -104 -12.5 867.9MHz, SF10BW125, 4/5CR
2026-05-07 03:42:42 8.1875°C 88.875% 3.33V v254 52.0983 / 5.12253 9001 ttn.v3 2.107km -103 -9 867.3MHz, SF10BW125, 4/5CR
2026-05-07 03:10:51 9°C 83.9375% 3.33V v254 52.0983 / 5.12253 8999 ttn.v3 2.107km -107 -11 867.1MHz, SF10BW125, 4/5CR
0.541km -120 -16.5 867.1MHz, SF10BW125, 4/5CR
2026-05-07 02:54:55 9.125°C 85.3125% 3.33V v254 52.0983 / 5.12253 8998 ttn.v3 2.107km -103 -10.5 868.1MHz, SF10BW125, 4/5CR
- -125 -12.75 868.1MHz, SF10BW125, 4/5CR
2026-05-07 02:07:08 9.5625°C 83.5625% 3.33V v254 52.0983 / 5.12253 8995 ttn.v3 - -126 -11.75 867.7MHz, SF10BW125, 4/5CR
2026-05-07 01:03:23 10.6875°C 78.1875% 3.33V v254 52.0983 / 5.12253 8991 ttn.v3 0.541km -120 -15.2 867.3MHz, SF10BW125, 4/5CR
2026-05-07 00:47:27 10.75°C 78.4375% 3.33V v254 52.0983 / 5.12253 8990 ttn.v3 0.541km -120 -15 868.5MHz, SF10BW125, 4/5CR
2026-05-06 23:59:37 11°C 76.5625% 3.34V v254 52.0983 / 5.12253 8987 ttn.v3 2.107km -105 -13.25 867.9MHz, SF10BW125, 4/5CR
2026-05-06 23:11:47 11.5°C 75.3125% 3.34V v254 52.0983 / 5.12253 8984 ttn.v3 0.541km -118 -15.8 868.5MHz, SF10BW125, 4/5CR
2026-05-06 22:23:57 11.75°C 74.0625% 3.33V v254 52.0983 / 5.12253 8981 ttn.v3 0.541km -119 -17 867.3MHz, SF10BW125, 4/5CR
2026-05-06 22:08:00 11.875°C 75.75% 3.34V v254 52.0983 / 5.12253 8980 ttn.v3 2.107km -107 -12 868.1MHz, SF10BW125, 4/5CR
2026-05-06 21:52:04 11.9375°C 77.0625% 3.34V v254 52.0983 / 5.12253 8979 ttn.v3 2.107km -105 -9.25 867.1MHz, SF10BW125, 4/5CR
0.541km -120 -12.8 867.1MHz, SF10BW125, 4/5CR
2026-05-06 20:48:17 12.1875°C 67.25% 3.33V v254 52.0983 / 5.12253 8975 ttn.v3 2.107km -104 -13 867.7MHz, SF10BW125, 4/5CR
0.541km -120 -16.5 867.7MHz, SF10BW125, 4/5CR
2026-05-06 19:44:29 12.625°C 66.8125% 3.33V v254 52.0983 / 5.12253 8971 ttn.v3 2.107km -105 -9 867.3MHz, SF10BW125, 4/5CR
2026-05-06 19:12:35 12.8125°C 65.25% 3.34V v254 52.0983 / 5.12253 8969 ttn.v3 0.541km -119 -13.5 867.1MHz, SF10BW125, 4/5CR
2026-05-06 17:20:53 13.25°C 64.1875% 3.34V v254 52.0983 / 5.12253 8962 ttn.v3 2.107km -108 -10 868.1MHz, SF10BW125, 4/5CR
- -123 -12.25 868.1MHz, SF10BW125, 4/5CR
2026-05-06 17:04:56 13.0625°C 64.8125% 3.34V v254 52.0983 / 5.12253 8961 ttn.v3 2.107km -104 -9.5 867.3MHz, SF10BW125, 4/5CR
2026-05-06 16:33:02 12.875°C 64.1875% 3.34V v254 52.0983 / 5.12253 8959 ttn.v3 2.107km -108 -7.75 867.1MHz, SF10BW125, 4/5CR
- -113 -16.25 867.1MHz, SF10BW125, 4/5CR
2026-05-06 15:45:10 12.8125°C 62.5625% 3.34V v254 52.0983 / 5.12253 8956 ttn.v3 - -125 -14.25 868.1MHz, SF10BW125, 4/5CR
2.107km -99 -14.5 868.1MHz, SF10BW125, 4/5CR
2026-05-06 14:25:22 13.5°C 60.0625% 3.34V v254 52.0983 / 5.12253 8951 ttn.v3 0.541km -120 -14.5 867.3MHz, SF10BW125, 4/5CR
2026-05-06 14:09:24 13.5625°C 62.375% 3.34V v254 52.0983 / 5.12253 8950 ttn.v3 2.107km -103 -9.5 868.1MHz, SF10BW125, 4/5CR
- -117 -10.25 868.1MHz, SF10BW125, 4/5CR
0.541km -121 -13 868.1MHz, SF10BW125, 4/5CR
2026-05-06 13:53:27 13.6875°C 62.5% 3.34V v254 52.0983 / 5.12253 8949 ttn.v3 2.107km -103 -6.75 867.1MHz, SF10BW125, 4/5CR
2026-05-06 13:21:31 13.875°C 66% 3.34V v254 52.0983 / 5.12253 8947 ttn.v3 2.107km -107 -11 867.9MHz, SF10BW125, 4/5CR
0.541km -120 -14 867.9MHz, SF10BW125, 4/5CR
- -125 -15.75 867.9MHz, SF10BW125, 4/5CR
2026-05-06 12:49:35 14.1875°C 61.6875% 3.34V v254 52.0983 / 5.12253 8945 ttn.v3 0.541km -120 -15 867.7MHz, SF10BW125, 4/5CR
2026-05-06 11:45:44 14.375°C 63.4375% 3.34V v254 52.0983 / 5.12253 8941 ttn.v3 0.541km -120 -14.5 867.3MHz, SF10BW125, 4/5CR
2026-05-06 11:13:49 13.8125°C 68.5% 3.34V v254 52.0983 / 5.12253 8939 ttn.v3 0.541km -120 -16.5 867.1MHz, SF10BW125, 4/5CR
2026-05-06 09:38:04 12.25°C 76.8125% 3.33V v254 52.0983 / 5.12253 8933 ttn.v3 0.541km -119 -14.2 867.5MHz, SF10BW125, 4/5CR
2026-05-06 08:02:23 10.875°C 89.3125% 3.33V v254 52.0983 / 5.12253 8927 ttn.v3 2.107km -105 -11.5 867.9MHz, SF10BW125, 4/5CR
2026-05-06 07:48:05 10.75°C 89.0625% 3.34V v254 52.0983 / 5.12253 8926 ttn.v3 0.541km -121 -16.2 868.1MHz, SF12BW125, 4/5CR
2026-05-06 06:58:43 10.375°C 90.25% 3.33V v254 52.0983 / 5.1225 8923 ttn.v3 0.543km -118 -15.2 867.5MHz, SF10BW125, 4/5CR
2026-05-06 06:10:55 10.0625°C 89.1875% 3.33V v254 52.0983 / 5.1225 8920 ttn.v3 - -122 -14.25 868.1MHz, SF10BW125, 4/5CR
2026-05-06 05:54:59 10°C 87.8125% 3.33V v254 52.0983 / 5.1225 8919 ttn.v3 2.109km -109 -9.75 867.1MHz, SF10BW125, 4/5CR
2026-05-06 05:39:03 10°C 88.5625% 3.33V v254 52.0983 / 5.1225 8918 ttn.v3 0.543km -118 -15.8 868.5MHz, SF10BW125, 4/5CR
2026-05-06 05:23:07 10°C 87.625% 3.33V v254 52.0983 / 5.1225 8917 ttn.v3 2.109km -110 -9.25 867.9MHz, SF10BW125, 4/5CR
2026-05-06 03:47:30 10.1875°C 84.75% 3.33V v254 52.0983 / 5.1225 8911 ttn.v3 0.543km -119 -15.5 867.3MHz, SF10BW125, 4/5CR
2026-05-06 03:15:38 10.3125°C 84.8125% 3.33V v254 52.0983 / 5.1225 8909 ttn.v3 2.109km -104 -11.25 867.1MHz, SF10BW125, 4/5CR
0.543km -121 -16.5 867.1MHz, SF10BW125, 4/5CR
2026-05-06 02:59:42 10.3125°C 85.4375% 3.33V v254 52.0983 / 5.1225 8908 ttn.v3 2.109km -106 -10.5 868.1MHz, SF10BW125, 4/5CR
0.543km -120 -16.8 868.1MHz, SF10BW125, 4/5CR
2026-05-06 02:43:46 10.3125°C 85.25% 3.33V v254 52.0983 / 5.1225 8907 ttn.v3 2.109km -107 -10 867.9MHz, SF10BW125, 4/5CR
2026-05-06 02:11:53 10.3125°C 86.4375% 3.33V v254 52.0983 / 5.1225 8905 ttn.v3 - -123 -13.25 867.7MHz, SF10BW125, 4/5CR
2026-05-06 01:24:05 10.375°C 85.25% 3.33V v254 52.0983 / 5.1225 8902 ttn.v3 2.109km -109 -7.75 868.1MHz, SF10BW125, 4/5CR
- -123 -12.5 868.1MHz, SF10BW125, 4/5CR
2026-05-06 00:36:17 10.4375°C 83.75% 3.33V v254 52.0983 / 5.1225 8899 ttn.v3 2.109km -107 -6.25 867.1MHz, SF10BW125, 4/5CR
2026-05-06 00:04:25 10.375°C 81.75% 3.33V v254 52.0983 / 5.1225 8897 ttn.v3 2.109km -110 -12.75 867.9MHz, SF10BW125, 4/5CR
0.543km -119 -16 867.9MHz, SF10BW125, 4/5CR
2026-05-05 23:32:33 10.4375°C 82% 3.33V v254 52.0983 / 5.1225 8895 ttn.v3 - -125 -12.25 867.7MHz, SF10BW125, 4/5CR
2026-05-05 23:00:40 10.875°C 80.375% 3.33V v254 52.0983 / 5.1225 8893 ttn.v3 0.543km -119 -13.5 867.5MHz, SF10BW125, 4/5CR
2026-05-05 22:12:51 11.5625°C 79.4375% 3.33V v254 52.0983 / 5.1225 8890 ttn.v3 2.109km -107 -6.25 868.1MHz, SF10BW125, 4/5CR
2026-05-05 21:56:54 11.625°C 80.625% 3.33V v254 52.0983 / 5.1225 8889 ttn.v3 2.109km -105 -11.25 867.1MHz, SF10BW125, 4/5CR
2026-05-05 21:40:57 11.6875°C 81.125% 3.33V v254 52.0983 / 5.1225 8888 ttn.v3 2.109km -95 -17.25 868.5MHz, SF10BW125, 4/5CR
2026-05-05 21:25:01 11.75°C 79.625% 3.33V v254 52.0983 / 5.1225 8887 ttn.v3 - -125 -11.25 867.9MHz, SF10BW125, 4/5CR
2.109km -109 -11.25 867.9MHz, SF10BW125, 4/5CR
2026-05-05 20:53:07 12.25°C 78.8125% 3.34V v254 52.0983 / 5.1225 8885 ttn.v3 0.543km -118 -15 867.7MHz, SF10BW125, 4/5CR
2026-05-05 20:37:10 12.4375°C 77.6875% 3.34V v254 52.0983 / 5.1225 8884 ttn.v3 - -119 -8 868.1MHz, SF10BW125, 4/5CR
2.109km -107 -13 868.1MHz, SF10BW125, 4/5CR
2026-05-05 20:21:13 12.6875°C 77.5% 3.34V v254 52.0983 / 5.1225 8883 ttn.v3 0.543km -119 -14 867.5MHz, SF10BW125, 4/5CR
2026-05-05 19:49:18 13.25°C 75.875% 3.33V v254 52.0983 / 5.1225 8881 ttn.v3 0.543km -120 -15 867.3MHz, SF10BW125, 4/5CR
2026-05-05 19:17:23 13.8125°C 75.3125% 3.34V v254 52.0983 / 5.1225 8879 ttn.v3 0.543km -120 -15 867.1MHz, SF10BW125, 4/5CR
2026-05-05 19:01:25 14.125°C 73.9375% 3.34V v254 52.0983 / 5.1225 8878 ttn.v3 2.109km -110 -12.5 868.1MHz, SF10BW125, 4/5CR
0.543km -120 -16.8 868.1MHz, SF10BW125, 4/5CR
2026-05-05 18:45:27 14.3125°C 74.4375% 3.34V v254 52.0983 / 5.1225 8877 ttn.v3 2.109km -107 -7.25 867.9MHz, SF10BW125, 4/5CR
- -120 -11.25 867.9MHz, SF10BW125, 4/5CR
2026-05-05 17:25:36 15.125°C 71.5% 3.34V v254 52.0983 / 5.1225 8872 ttn.v3 - -120 -10.5 868.1MHz, SF10BW125, 4/5CR
2026-05-05 17:09:37 15°C 72.8125% 3.34V v254 52.0983 / 5.1225 8871 ttn.v3 0.543km -117 -13.2 867.3MHz, SF10BW125, 4/5CR
2026-05-05 16:37:40 15.3125°C 74.125% 3.34V v254 52.0983 / 5.1225 8869 ttn.v3 2.109km -102 -9.5 867.1MHz, SF10BW125, 4/5CR
2026-05-05 15:49:45 15.5°C 72% 3.34V v254 52.0983 / 5.1225 8866 ttn.v3 - -120 -12.75 868.1MHz, SF10BW125, 4/5CR
2.109km -103 -15.75 868.1MHz, SF10BW125, 4/5CR
2026-05-05 15:17:48 15.4375°C 75% 3.34V v254 52.0983 / 5.1225 8864 ttn.v3 - -118 -14 868.5MHz, SF10BW125, 4/5CR
2026-05-05 14:29:53 14.1875°C 79.8125% 3.34V v254 52.0983 / 5.1225 8861 ttn.v3 0.543km -120 -14 867.3MHz, SF10BW125, 4/5CR
2026-05-05 14:13:56 13.5°C 80.6875% 3.34V v254 52.0983 / 5.1225 8860 ttn.v3 2.109km -110 -10.75 868.1MHz, SF10BW125, 4/5CR
2026-05-05 13:26:04 11.75°C 87.3125% 3.33V v254 52.0983 / 5.1225 8857 ttn.v3 2.109km -111 -9.75 867.9MHz, SF10BW125, 4/5CR
2026-05-05 11:18:28 11°C 90.6875% 3.33V v254 52.0983 / 5.1225 8849 ttn.v3 2.109km -109 -15.75 867.1MHz, SF10BW125, 4/5CR
2026-05-05 11:02:31 10.9375°C 91.375% 3.33V v254 52.0983 / 5.1225 8848 ttn.v3 2.109km -103 -13.75 868.1MHz, SF10BW125, 4/5CR
2026-05-05 10:46:34 10.875°C 91.5% 3.33V v254 52.0983 / 5.1225 8847 ttn.v3 2.109km -99 -14.75 867.9MHz, SF10BW125, 4/5CR
0.543km -121 -15.5 867.9MHz, SF10BW125, 4/5CR
2026-05-05 09:26:51 10.3125°C 93.9375% 3.33V v254 52.0983 / 5.1225 8842 ttn.v3 - -123 -13.5 868.1MHz, SF10BW125, 4/5CR
2026-05-05 08:07:09 9.9375°C 95.875% 3.33V v254 52.0983 / 5.1225 8837 ttn.v3 2.109km -111 -10.75 867.9MHz, SF10BW125, 4/5CR
2026-05-05 07:51:13 10.0625°C 96.375% 3.33V v254 52.0983 / 5.1225 8836 ttn.v3 2.109km -107 -9 868.1MHz, SF10BW125, 4/5CR
2026-05-05 06:31:31 10.125°C 96.8125% 3.33V v254 52.0983 / 5.1225 8831 ttn.v3 0.543km -120 -15.5 867.3MHz, SF10BW125, 4/5CR
2026-05-05 06:16:10 10.25°C 96.25% 3.34V v254 52.0983 / 5.1225 8830 ttn.v3 2.109km -107 -10.75 868.1MHz, SF12BW125, 4/5CR
2026-05-05 05:59:40 10.3125°C 95.875% 3.33V v254 52.0982 / 5.12231 8829 ttn.v3 2.12km -110 -10.75 867.1MHz, SF10BW125, 4/5CR
0.55km -120 -16 867.1MHz, SF10BW125, 4/5CR
2026-05-05 05:27:46 10.5°C 95.4375% 3.34V v254 52.0982 / 5.12231 8827 ttn.v3 2.12km -109 -8.75 867.9MHz, SF10BW125, 4/5CR
2026-05-05 04:39:56 10.9375°C 94.9375% 3.34V v254 52.0982 / 5.12231 8824 ttn.v3 - -120 -10.25 868.1MHz, SF10BW125, 4/5CR
2.12km -109 -10.75 868.1MHz, SF10BW125, 4/5CR
2026-05-05 03:04:15 11.625°C 94.375% 3.34V v254 52.0982 / 5.12231 8818 ttn.v3 2.12km -98 -8.5 868.1MHz, SF10BW125, 4/5CR
2026-05-05 02:48:18 11.8125°C 94.4375% 3.33V v254 52.0982 / 5.12231 8817 ttn.v3 2.12km -108 -6.25 867.9MHz, SF10BW125, 4/5CR
2026-05-05 00:08:46 13.0625°C 94% 3.33V v254 52.0982 / 5.12231 8807 ttn.v3 2.12km -105 -8 867.9MHz, SF10BW125, 4/5CR
2026-05-04 23:52:49 13.25°C 94% 3.34V v254 52.0982 / 5.12231 8806 ttn.v3 2.12km -103 -12.75 868.1MHz, SF10BW125, 4/5CR
2026-05-04 23:36:51 13.3125°C 94.625% 3.34V v254 52.0982 / 5.12231 8805 ttn.v3 0.55km -120 -12.8 867.7MHz, SF10BW125, 4/5CR
2026-05-04 22:33:00 13.6875°C 94.5% 3.34V v254 52.0982 / 5.12231 8801 ttn.v3 2.12km -108 -13.5 867.3MHz, SF10BW125, 4/5CR
2026-05-04 22:17:02 13.875°C 92.9375% 3.34V v254 52.0982 / 5.12231 8800 ttn.v3 2.12km -109 -8.5 868.1MHz, SF10BW125, 4/5CR
2026-05-04 21:29:09 14.3125°C 93.125% 3.34V v254 52.0982 / 5.12231 8797 ttn.v3 2.12km -110 -6 867.9MHz, SF10BW125, 4/5CR
2026-05-04 20:41:14 15.0625°C 91.3125% 3.34V v254 52.0982 / 5.12231 8794 ttn.v3 2.12km -101 -12.5 868.1MHz, SF10BW125, 4/5CR
- -125 -16.25 868.1MHz, SF10BW125, 4/5CR
2026-05-04 19:05:21 16.75°C 88.0625% 3.34V v254 52.0982 / 5.12231 8788 ttn.v3 2.12km -107 -6.75 868.1MHz, SF10BW125, 4/5CR
2026-05-04 18:49:22 16.875°C 87.4375% 3.34V v254 52.0982 / 5.12231 8787 ttn.v3 2.12km -103 -7.25 867.9MHz, SF10BW125, 4/5CR
- -125 -17.5 867.9MHz, SF10BW125, 4/5CR
2026-05-04 17:13:25 18.375°C 81.75% 3.34V v254 52.0982 / 5.12231 8781 ttn.v3 0.55km -120 -14 867.3MHz, SF10BW125, 4/5CR
2026-05-04 16:41:25 18.4375°C 80.5% 3.34V v254 52.0982 / 5.12231 8779 ttn.v3 0.55km -121 -14.2 867.1MHz, SF10BW125, 4/5CR
2026-05-04 16:09:25 18.375°C 82.875% 3.34V v254 52.0982 / 5.12231 8777 ttn.v3 2.12km -111 -10.5 867.9MHz, SF10BW125, 4/5CR
2026-05-04 15:53:25 18.4375°C 84.0625% 3.34V v254 52.0982 / 5.12231 8776 ttn.v3 2.12km -93 -9.5 868.1MHz, SF10BW125, 4/5CR
2026-05-04 14:33:25 18.5625°C 83.4375% 3.34V v254 52.0982 / 5.12231 8771 ttn.v3 0.55km -118 -14.2 867.3MHz, SF10BW125, 4/5CR
2026-05-04 14:17:25 18.625°C 84.25% 3.34V v254 52.0982 / 5.12231 8770 ttn.v3 2.12km -105 -10.75 868.1MHz, SF10BW125, 4/5CR
2026-05-04 14:01:25 18.1875°C 86.6875% 3.34V v254 52.0982 / 5.12231 8769 ttn.v3 0.55km -119 -14.5 867.1MHz, SF10BW125, 4/5CR
2026-05-04 12:57:28 17°C 92.375% 3.34V v254 52.0982 / 5.12231 8765 ttn.v3 2.12km -110 -10.75 867.7MHz, SF10BW125, 4/5CR
2026-05-04 12:09:31 15.875°C 95.375% 3.34V v254 52.0982 / 5.12231 8762 ttn.v3 - -119 -13.75 868.5MHz, SF10BW125, 4/5CR
2026-05-04 11:53:33 15.3125°C 97.4375% 3.34V v254 52.0982 / 5.12231 8761 ttn.v3 0.55km -118 -15.2 867.3MHz, SF10BW125, 4/5CR
2026-05-04 11:21:36 14.625°C 102.688% 3.34V v254 52.0982 / 5.12231 8759 ttn.v3 0.55km -121 -14.5 867.1MHz, SF10BW125, 4/5CR
2026-05-04 07:54:06 12.4375°C 109.75% 3.33V v254 52.0982 / 5.12231 8746 ttn.v3 - -118 -7.75 868.1MHz, SF10BW125, 4/5CR
2026-05-04 07:38:09 12.3125°C 110.188% 3.33V v254 52.0982 / 5.12231 8745 ttn.v3 - -120 -13.25 867.7MHz, SF10BW125, 4/5CR
2026-05-04 06:34:20 11.875°C 111.125% 3.33V v254 52.0982 / 5.12231 8741 ttn.v3 - -124 -14 867.3MHz, SF10BW125, 4/5CR
2026-05-04 06:18:23 11.875°C 111.25% 3.33V v254 52.0982 / 5.12231 8740 ttn.v3 - -120 -9.5 868.1MHz, SF10BW125, 4/5CR
2026-05-04 06:02:26 11.875°C 111.312% 3.33V v254 52.0982 / 5.12231 8739 ttn.v3 2.12km -111 -14.5 867.1MHz, SF10BW125, 4/5CR
2026-05-04 05:46:29 11.8125°C 111.312% 3.33V v254 52.0982 / 5.12231 8738 ttn.v3 - -118 -13 868.5MHz, SF10BW125, 4/5CR
2026-05-04 05:30:32 11.625°C 110.875% 3.34V v254 52.0982 / 5.12231 8737 ttn.v3 - -121 -8.75 867.9MHz, SF10BW125, 4/5CR
2.12km -111 -12.75 867.9MHz, SF10BW125, 4/5CR
2026-05-04 04:58:38 11.5°C 109.5% 3.33V v254 52.0982 / 5.12231 8735 ttn.v3 - -115 -16.5 867.7MHz, SF10BW125, 4/5CR
2026-05-04 04:43:40 11.5625°C 109.375% 3.34V v254 52.0982 / 5.12231 8734 ttn.v3 - -119 -11.75 868.1MHz, SF12BW125, 4/5CR
2026-05-04 04:10:50 11.6875°C 108.562% 3.33V v254 52.0982 / 5.12262 8732 ttn.v3 - -120 -15.75 868.5MHz, SF10BW125, 4/5CR
2026-05-04 03:22:59 11.75°C 106.562% 3.34V v254 52.0982 / 5.12262 8729 ttn.v3 2.099km -109 -16.75 867.1MHz, SF10BW125, 4/5CR
2026-05-04 03:07:02 12.0625°C 106.375% 3.33V v254 52.0982 / 5.12262 8728 ttn.v3 2.099km -108 -13.5 868.1MHz, SF10BW125, 4/5CR
2026-05-04 02:51:04 12.375°C 106.625% 3.34V v254 52.0982 / 5.12262 8727 ttn.v3 2.099km -104 -14 867.9MHz, SF10BW125, 4/5CR
2026-05-04 02:19:10 12.625°C 105.188% 3.34V v254 52.0982 / 5.12262 8725 ttn.v3 2.099km -105 -15.75 867.7MHz, SF10BW125, 4/5CR
2026-05-04 01:31:17 12.75°C 104.125% 3.33V v254 52.0982 / 5.12262 8722 ttn.v3 - -119 -8.5 868.1MHz, SF10BW125, 4/5CR
2026-05-04 01:15:20 12.625°C 104.812% 3.34V v254 52.0982 / 5.12262 8721 ttn.v3 - -124 -13.5 867.3MHz, SF10BW125, 4/5CR
2026-05-04 00:11:30 13.3125°C 103.375% 3.34V v254 52.0982 / 5.12262 8717 ttn.v3 2.099km -110 -16 867.9MHz, SF10BW125, 4/5CR
2026-05-03 23:23:37 13.625°C 104.25% 3.34V v254 52.0982 / 5.12262 8714 ttn.v3 - -119 -14.5 868.5MHz, SF10BW125, 4/5CR
2026-05-03 22:19:46 14.3125°C 104.938% 3.34V v254 52.0982 / 5.12262 8710 ttn.v3 - -119 -5.75 868.1MHz, SF10BW125, 4/5CR
2.099km -104 -14 868.1MHz, SF10BW125, 4/5CR
2026-05-03 21:47:49 14.5°C 104.688% 3.34V v254 52.0982 / 5.12262 8708 ttn.v3 - -119 -16.25 868.5MHz, SF10BW125, 4/5CR
2026-05-03 18:52:08 15.125°C 102.125% 3.34V v254 52.0982 / 5.12262 8697 ttn.v3 - -120 -10.5 867.9MHz, SF10BW125, 4/5CR
2026-05-03 18:36:10 15.0625°C 103.5% 3.34V v254 52.0982 / 5.12262 8696 ttn.v3 - -118 -15.25 868.5MHz, SF10BW125, 4/5CR
2026-05-03 17:16:19 14.375°C 103.688% 3.34V v254 52.0982 / 5.12262 8691 ttn.v3 0.531km -119 -15.5 867.3MHz, SF10BW125, 4/5CR
2026-05-03 15:40:28 15.4375°C 104.438% 3.34V v254 52.0982 / 5.12262 8685 ttn.v3 2.099km -107 -13.75 867.7MHz, SF10BW125, 4/5CR
2026-05-03 15:24:29 15.25°C 104.5% 3.34V v254 52.0982 / 5.12262 8684 ttn.v3 - -116 -14.25 868.5MHz, SF10BW125, 4/5CR
2026-05-03 14:36:35 15.3125°C 104% 3.34V v254 52.0982 / 5.12262 8681 ttn.v3 - -122 -11.5 867.3MHz, SF10BW125, 4/5CR
2026-05-03 14:04:38 15.5°C 103.562% 3.34V v254 52.0982 / 5.12262 8679 ttn.v3 - -127 -12 867.1MHz, SF10BW125, 4/5CR
2026-05-03 13:32:41 15.9375°C 101.625% 3.34V v254 52.0982 / 5.12262 8677 ttn.v3 2.099km -110 -14.75 867.9MHz, SF10BW125, 4/5CR
2026-05-03 11:56:47 17.375°C 88.875% 3.34V v254 52.0982 / 5.12262 8671 ttn.v3 0.531km -120 -14.5 867.3MHz, SF10BW125, 4/5CR
2026-05-03 11:24:50 17.125°C 90.3125% 3.34V v254 52.0982 / 5.12262 8669 ttn.v3 0.531km -119 -12.8 867.1MHz, SF10BW125, 4/5CR
2026-05-03 11:08:51 16.9375°C 90.375% 3.34V v254 52.0982 / 5.12262 8668 ttn.v3 - -122 -12 868.1MHz, SF10BW125, 4/5CR
2026-05-03 10:36:53 16.875°C 92.5% 3.34V v254 52.0982 / 5.12262 8666 ttn.v3 - -120 -17.75 868.5MHz, SF10BW125, 4/5CR
2026-05-03 09:16:59 15.75°C 96.875% 3.33V v254 52.0982 / 5.12262 8661 ttn.v3 0.531km -120 -16.5 867.3MHz, SF10BW125, 4/5CR
2026-05-03 08:45:03 15.25°C 99.8125% 3.34V v254 52.0982 / 5.12262 8659 ttn.v3 0.531km -119 -16 867.1MHz, SF10BW125, 4/5CR
2026-05-03 07:25:13 13.75°C 102.562% 3.34V v254 52.0982 / 5.12262 8654 ttn.v3 - -119 -16.25 868.5MHz, SF10BW125, 4/5CR
2026-05-03 06:05:25 13.75°C 105% 3.34V v254 52.0982 / 5.12262 8649 ttn.v3 2.099km -109 -12.25 867.1MHz, SF10BW125, 4/5CR
2026-05-03 05:49:28 13.8125°C 105.25% 3.33V v254 52.0982 / 5.12262 8648 ttn.v3 - -118 -14.25 868.5MHz, SF10BW125, 4/5CR
2026-05-03 05:01:35 13.75°C 105.188% 3.34V v254 52.0982 / 5.12262 8645 ttn.v3 2.099km -109 -12.5 867.7MHz, SF10BW125, 4/5CR
2026-05-03 04:45:37 13.625°C 105.062% 3.34V v254 52.0982 / 5.12262 8644 ttn.v3 - -121 -15.5 868.1MHz, SF10BW125, 4/5CR
2026-05-03 03:57:45 13.5°C 104.875% 3.33V v254 52.0982 / 5.12262 8641 ttn.v3 2.099km -104 -11.25 867.3MHz, SF10BW125, 4/5CR
0.531km -120 -16.2 867.3MHz, SF10BW125, 4/5CR
2026-05-03 03:25:50 13.5°C 105.312% 3.33V v254 52.0982 / 5.12262 8639 ttn.v3 2.099km -105 -11.25 867.1MHz, SF10BW125, 4/5CR
2026-05-03 03:10:40 13.375°C 105% 3.34V v254 52.0982 / 5.12262 8638 ttn.v3 - -121 -14.25 868.1MHz, SF12BW125, 4/5CR
2026-05-03 02:22:03 13.625°C 104.938% 3.34V v254 52.0981 / 5.12247 8635 ttn.v3 - -120 -6.75 867.7MHz, SF10BW125, 4/5CR
2.108km -107 -7.75 867.7MHz, SF10BW125, 4/5CR
2026-05-03 01:18:12 13.8125°C 104.562% 3.34V v254 52.0981 / 5.12247 8631 ttn.v3 2.108km -109 -9.5 867.3MHz, SF10BW125, 4/5CR
2026-05-03 00:14:22 14.25°C 104.75% 3.34V v254 52.0981 / 5.12247 8627 ttn.v3 2.108km -107 -14.5 867.9MHz, SF10BW125, 4/5CR
2026-05-02 23:26:27 16.6875°C 62.9375% 3.34V v254 52.0981 / 5.12247 8624 ttn.v3 0.535km -120 -15 868.5MHz, SF10BW125, 4/5CR
2026-05-02 23:10:28 16.625°C 62.625% 3.34V v254 52.0981 / 5.12247 8623 ttn.v3 0.535km -119 -14.5 867.5MHz, SF10BW125, 4/5CR
2026-05-02 22:06:32 17.375°C 65.125% 3.34V v254 52.0981 / 5.12247 8619 ttn.v3 0.535km -120 -14.2 867.1MHz, SF10BW125, 4/5CR
2026-05-02 21:50:33 17.5625°C 64.6875% 3.34V v254 52.0981 / 5.12247 8618 ttn.v3 - -118 -13 868.5MHz, SF10BW125, 4/5CR
2026-05-02 21:34:34 17.625°C 65.25% 3.34V v254 52.0981 / 5.12247 8617 ttn.v3 2.108km -110 -12.25 867.9MHz, SF10BW125, 4/5CR
0.535km -120 -16.5 867.9MHz, SF10BW125, 4/5CR
2026-05-02 20:14:35 19.6875°C 61.25% 3.34V v254 52.0981 / 5.12247 8612 ttn.v3 - -119 -14.5 868.5MHz, SF10BW125, 4/5CR
2026-05-02 18:54:33 21.5625°C 55.25% 3.34V v254 52.0981 / 5.12247 8607 ttn.v3 2.108km -111 -10.5 867.9MHz, SF10BW125, 4/5CR
2026-05-02 18:22:31 21.6875°C 56.3125% 3.34V v254 52.0981 / 5.12247 8605 ttn.v3 0.535km -120 -15.2 867.7MHz, SF10BW125, 4/5CR
2026-05-02 17:18:26 22.25°C 57.5% 3.34V v254 52.0981 / 5.12247 8601 ttn.v3 2.108km -107 -8.25 867.3MHz, SF10BW125, 4/5CR
0.535km -120 -13.2 867.3MHz, SF10BW125, 4/5CR
2026-05-02 16:46:23 22.625°C 58.9375% 3.34V v254 52.0981 / 5.12247 8599 ttn.v3 2.108km -105 -9.75 867.1MHz, SF10BW125, 4/5CR
2026-05-02 16:14:21 22.6875°C 61.0625% 3.34V v254 52.0981 / 5.12247 8597 ttn.v3 2.108km -110 -10.25 867.9MHz, SF10BW125, 4/5CR
2026-05-02 14:06:12 21.375°C 65.5625% 3.34V v254 52.0981 / 5.12247 8589 ttn.v3 2.108km -110 -8.25 867.1MHz, SF10BW125, 4/5CR
2026-05-02 10:54:04 19.1875°C 62.3125% 3.34V v254 52.0981 / 5.12247 8577 ttn.v3 2.108km -113 -9 867.9MHz, SF10BW125, 4/5CR
2026-05-02 10:38:05 17.1875°C 66.5% 3.34V v254 52.0981 / 5.12247 8576 ttn.v3 0.535km -120 -15.5 868.5MHz, SF10BW125, 4/5CR
2026-05-02 10:22:07 15.9375°C 70.75% 3.34V v254 52.0981 / 5.12247 8575 ttn.v3 2.108km -107 -6.25 867.7MHz, SF10BW125, 4/5CR
2026-05-02 09:34:13 14.5°C 70.75% 3.33V v254 52.0981 / 5.12247 8572 ttn.v3 - -123 -13.25 868.1MHz, SF10BW125, 4/5CR
2026-05-02 09:18:16 14.125°C 71.5625% 3.34V v254 52.0981 / 5.12247 8571 ttn.v3 2.108km -107 -3.25 867.3MHz, SF10BW125, 4/5CR
0.535km -119 -13.5 867.3MHz, SF10BW125, 4/5CR
- -127 -14.5 867.3MHz, SF10BW125, 4/5CR
2026-05-02 08:46:21 13.6875°C 62.9375% 3.34V v254 52.0981 / 5.12247 8569 ttn.v3 2.108km -108 -4 867.1MHz, SF10BW125, 4/5CR
2026-05-02 08:14:26 13.1875°C 61.125% 3.34V v254 52.0981 / 5.12247 8567 ttn.v3 0.535km -120 -13.8 867.9MHz, SF10BW125, 4/5CR
2026-05-02 07:58:29 12.8125°C 63.75% 3.33V v254 52.0981 / 5.12247 8566 ttn.v3 0.535km -120 -14.8 868.1MHz, SF10BW125, 4/5CR
2026-05-02 07:42:32 12.5625°C 61.625% 3.34V v254 52.0981 / 5.12247 8565 ttn.v3 0.535km -118 -12.2 867.7MHz, SF10BW125, 4/5CR
- -115 -16.5 867.7MHz, SF10BW125, 4/5CR
2026-05-02 06:38:44 11.3125°C 68.4375% 3.33V v254 52.0981 / 5.12247 8561 ttn.v3 2.108km -105 -13 867.3MHz, SF10BW125, 4/5CR
0.535km -121 -15 867.3MHz, SF10BW125, 4/5CR
2026-05-02 06:06:51 11.75°C 63.9375% 3.33V v254 52.0981 / 5.12247 8559 ttn.v3 2.108km -103 -7 867.1MHz, SF10BW125, 4/5CR
2026-05-02 05:34:58 11.6875°C 66% 3.33V v254 52.0981 / 5.12247 8557 ttn.v3 2.108km -107 -7.25 867.9MHz, SF10BW125, 4/5CR
2026-05-02 04:47:07 12.3125°C 64.1875% 3.34V v254 52.0981 / 5.12247 8554 ttn.v3 2.108km -108 -12 868.1MHz, SF10BW125, 4/5CR
2026-05-02 04:31:10 12.5625°C 61.875% 3.34V v254 52.0981 / 5.12247 8553 ttn.v3 0.535km -119 -16 867.5MHz, SF10BW125, 4/5CR
2026-05-02 04:15:13 12.8125°C 60.1875% 3.34V v254 52.0981 / 5.12247 8552 ttn.v3 0.535km -118 -14.8 868.5MHz, SF10BW125, 4/5CR
2026-05-02 03:59:16 12.875°C 60% 3.34V v254 52.0981 / 5.12247 8551 ttn.v3 2.108km -104 -4 867.3MHz, SF10BW125, 4/5CR
0.535km -120 -12.2 867.3MHz, SF10BW125, 4/5CR
- -124 -12.5 867.3MHz, SF10BW125, 4/5CR
2026-05-02 03:27:21 13.1875°C 59.3125% 3.34V v254 52.0981 / 5.12247 8549 ttn.v3 2.108km -101 -4.5 867.1MHz, SF10BW125, 4/5CR
2026-05-02 02:55:27 13.5°C 58.5% 3.33V v254 52.0981 / 5.12247 8547 ttn.v3 2.108km -108 -6.5 867.9MHz, SF10BW125, 4/5CR
2026-05-02 02:23:32 14.0625°C 55.3125% 3.34V v254 52.0981 / 5.12247 8545 ttn.v3 0.535km -118 -15.5 867.7MHz, SF10BW125, 4/5CR
2026-05-02 01:51:36 14.3125°C 55.875% 3.34V v254 52.0981 / 5.12247 8543 ttn.v3 0.535km -119 -13.5 867.5MHz, SF10BW125, 4/5CR
2026-05-02 01:37:11 14.375°C 55.3125% 3.34V v254 52.0981 / 5.12247 8542 ttn.v3 2.108km -105 -11.25 868.1MHz, SF12BW125, 4/5CR
0.535km -121 -15.5 868.1MHz, SF12BW125, 4/5CR
- -124 -15.5 868.1MHz, SF12BW125, 4/5CR
2026-05-02 01:19:46 14.75°C 53.8125% 3.34V v254 52.0985 / 5.12204 8541 ttn.v3 2.144km -91 -8.75 867.3MHz, SF10BW125, 4/5CR
0.581km -119 -14.8 867.3MHz, SF10BW125, 4/5CR
- -125 -18 867.3MHz, SF10BW125, 4/5CR
2026-05-02 01:03:48 14.875°C 51.25% 3.34V v254 52.0985 / 5.12204 8540 ttn.v3 - -119 -15.25 868.5MHz, SF10BW125, 4/5CR
2026-05-02 00:47:51 14.625°C 54.9375% 3.34V v254 52.0985 / 5.12204 8539 ttn.v3 0.581km -119 -12.8 867.1MHz, SF10BW125, 4/5CR
2026-05-02 00:15:54 15.1875°C 53.25% 3.34V v254 52.0985 / 5.12204 8537 ttn.v3 2.144km -105 -11 867.9MHz, SF10BW125, 4/5CR
0.581km -121 -13.8 867.9MHz, SF10BW125, 4/5CR
2026-05-01 23:59:56 15.5625°C 51.125% 3.34V v254 52.0985 / 5.12204 8536 ttn.v3 0.581km -121 -15.8 868.1MHz, SF10BW125, 4/5CR
2026-05-01 22:40:02 18.1875°C 41.125% 3.34V v254 52.0985 / 5.12204 8531 ttn.v3 2.144km -95 -6.5 867.3MHz, SF10BW125, 4/5CR
0.581km -119 -13.2 867.3MHz, SF10BW125, 4/5CR
- -126 -14.25 867.3MHz, SF10BW125, 4/5CR
2026-05-01 21:36:03 19.0625°C 41.1875% 3.34V v254 52.0985 / 5.12204 8527 ttn.v3 - -122 -8.5 867.9MHz, SF10BW125, 4/5CR
2.144km -111 -11.25 867.9MHz, SF10BW125, 4/5CR
0.581km -121 -16.2 867.9MHz, SF10BW125, 4/5CR
2026-05-01 20:48:02 20.8125°C 35.375% 3.34V v254 52.0985 / 5.12204 8524 ttn.v3 0.581km -121 -14.5 868.1MHz, SF10BW125, 4/5CR
2026-05-01 20:32:01 21.3125°C 36.25% 3.34V v254 52.0985 / 5.12204 8523 ttn.v3 0.581km -118 -14 867.5MHz, SF10BW125, 4/5CR

Message count: 200
Node count: 1

Messages per node

Number of messages in list aboveNodes
200

Statistics per gateway

GatewayNumber of messagesNumber of nodesNodes
1061 (2.144km)
801 (0.581km)
581
31

Filter by dataset